Terminal Aerodrome Forecast
Issued by NWS Boise, ID

Home | Current Version | Previous Version | Text Only | Print | Product List | Glossary On
Versions: 1 2 3 4 5 6 7 8 9 10 11 12 13
000
FTUS45 KBOI 171120
TAFBNO
TAF
KBNO 171120Z 1712/1812 VRB05KT P6SM SCT090 OVC200
     FM171900 23012KT P6SM SCT050 OVC090
     FM180000 28014G24KT P6SM -SHRA OVC050
     FM180900 27012KT P6SM VCSH FEW025 OVC050=

USA.gov is the U.S. government's official web portal to all federal, state and local government web resources and services.